Time;durP1;ratioP1;P1;durP2;ratioP2;P2;SDS_P1;SDS_P2;PMS_P1;PMS_P2;Temp;Humidity;BMP_temperature;BMP_pressure;BME280_temperature;BME280_humidity;BME280_pressure;Samples;Min_cycle;Max_cycle;Signal;HPM_P1;HPM_P2
2021/05/09 00:00:17;;;;;;;16.83;9.60;;;11.40;99.90;;;;;;4807326;29;20502;-77
2021/05/09 00:02:43;;;;;;;14.27;9.30;;;11.40;99.90;;;;;;4809355;29;20041;-77
2021/05/09 00:05:09;;;;;;;13.70;9.73;;;11.40;99.90;;;;;;4818079;29;20045;-77
2021/05/09 00:07:37;;;;;;;14.02;9.15;;;11.40;99.90;;;;;;4811973;29;20431;-77
2021/05/09 00:10:09;;;;;;;12.07;9.20;;;11.40;99.90;;;;;;4809763;29;20432;-77
2021/05/09 00:12:35;;;;;;;14.90;9.27;;;11.40;99.90;;;;;;4824115;29;20038;-77
2021/05/09 00:15:01;;;;;;;17.17;9.90;;;11.30;99.90;;;;;;4818382;29;20039;-75
2021/05/09 00:17:28;;;;;;;12.90;9.57;;;11.30;99.90;;;;;;4806867;29;20050;-75
2021/05/09 00:19:55;;;;;;;14.98;9.27;;;11.30;99.90;;;;;;4821138;29;20089;-75
2021/05/09 00:22:20;;;;;;;17.63;9.85;;;11.30;99.90;;;;;;4824746;29;20491;-75
2021/05/09 00:24:46;;;;;;;16.38;9.73;;;11.30;99.90;;;;;;4824696;29;20499;-75
2021/05/09 00:27:33;;;;;;;14.00;8.80;;;11.50;99.90;;;;;;4824416;29;20499;-75
2021/05/09 00:29:59;;;;;;;13.63;9.50;;;11.30;99.90;;;;;;4825798;29;20491;-75
2021/05/09 00:32:25;;;;;;;13.02;9.68;;;11.10;99.90;;;;;;4825287;29;20044;-75
2021/05/09 00:34:51;;;;;;;14.32;10.10;;;11.50;99.90;;;;;;4825663;29;20555;-75
2021/05/09 00:37:22;;;;;;;17.42;9.23;;;11.50;99.90;;;;;;4822965;29;20043;-75
2021/05/09 00:39:48;;;;;;;15.32;9.48;;;11.30;99.90;;;;;;4791938;29;20049;-75
2021/05/09 00:42:16;;;;;;;18.35;9.98;;;11.20;99.90;;;;;;4820132;29;20046;-75
2021/05/09 00:44:44;;;;;;;16.80;10.95;;;11.20;99.90;;;;;;4820029;29;20400;-75
2021/05/09 00:47:12;;;;;;;15.88;10.82;;;11.50;99.90;;;;;;4821663;29;20042;-81
2021/05/09 00:49:39;;;;;;;16.15;10.18;;;11.40;99.90;;;;;;4817009;29;20472;-76
2021/05/09 00:52:15;;;;;;;13.98;9.57;;;11.20;99.90;;;;;;4815363;29;20043;-75
2021/05/09 00:54:57;;;;;;;16.83;10.35;;;11.30;99.90;;;;;;4817464;29;20078;-77
2021/05/09 00:57:25;;;;;;;17.85;10.27;;;11.20;99.90;;;;;;4824524;29;20055;-75
2021/05/09 00:59:52;;;;;;;15.85;9.77;;;11.20;99.90;;;;;;4823543;29;20058;-77
2021/05/09 01:02:18;;;;;;;14.75;10.25;;;11.20;99.90;;;;;;4820863;29;20046;-76
2021/05/09 01:04:45;;;;;;;15.15;10.63;;;11.20;99.90;;;;;;4815775;29;20494;-78
2021/05/09 01:07:14;;;;;;;17.95;10.05;;;11.20;99.90;;;;;;4823476;29;20074;-78
2021/05/09 01:09:52;;;;;;;18.65;10.40;;;11.20;99.90;;;;;;4824677;29;20042;-75
2021/05/09 01:12:18;;;;;;;13.88;10.45;;;11.20;99.90;;;;;;4808321;29;20480;-77
2021/05/09 01:14:44;;;;;;;16.13;10.55;;;11.20;99.90;;;;;;4825079;29;20486;-76
2021/05/09 01:17:12;;;;;;;15.38;11.50;;;11.30;99.90;;;;;;4823827;29;20038;-76
2021/05/09 01:19:39;;;;;;;19.02;10.73;;;11.20;99.90;;;;;;4817980;29;20042;-77
2021/05/09 01:22:11;;;;;;;15.88;10.88;;;11.20;99.90;;;;;;4800719;29;20133;-76
2021/05/09 01:24:38;;;;;;;13.77;9.43;;;11.10;99.90;;;;;;4816478;29;20123;-72
2021/05/09 01:27:05;;;;;;;14.52;10.25;;;11.10;99.90;;;;;;4821180;29;20488;-73
2021/05/09 01:29:34;;;;;;;17.25;10.98;;;11.10;99.90;;;;;;4823693;29;20046;-77
2021/05/09 01:32:02;;;;;;;13.68;9.88;;;11.10;99.90;;;;;;4819831;29;20539;-74
2021/05/09 01:34:34;;;;;;;16.92;10.55;;;11.10;99.90;;;;;;4817170;29;20515;-78
2021/05/09 01:37:02;;;;;;;15.85;9.95;;;11.10;99.90;;;;;;4814609;29;20159;-77
2021/05/09 01:39:34;;;;;;;11.35;8.65;;;11.10;99.90;;;;;;4813530;29;20042;-77
2021/05/09 01:42:02;;;;;;;14.75;10.32;;;11.10;99.90;;;;;;4824058;29;20036;-76
2021/05/09 01:44:56;;;;;;;14.45;10.15;;;11.10;99.90;;;;;;4810242;29;20069;-77
2021/05/09 01:47:22;;;;;;;16.55;10.30;;;11.10;99.90;;;;;;4823709;29;20042;-77
2021/05/09 01:49:48;;;;;;;16.92;10.23;;;11.10;99.90;;;;;;4821333;29;20046;-77
2021/05/09 01:52:15;;;;;;;17.40;9.45;;;11.00;99.90;;;;;;4823851;29;20042;-77
2021/05/09 01:54:41;;;;;;;12.30;9.45;;;11.00;99.90;;;;;;4824064;29;20492;-78
2021/05/09 01:57:07;;;;;;;17.70;10.15;;;11.00;99.90;;;;;;4823153;29;20060;-76
2021/05/09 01:59:33;;;;;;;12.15;9.05;;;11.00;99.90;;;;;;4823865;29;20166;-76
2021/05/09 02:02:02;;;;;;;18.45;9.50;;;11.00;99.90;;;;;;4815335;29;20059;-74
2021/05/09 02:04:35;;;;;;;11.32;9.15;;;11.00;99.90;;;;;;4822157;29;20050;-75
2021/05/09 02:07:21;;;;;;;15.60;9.52;;;11.00;99.90;;;;;;4818476;29;20050;-74
2021/05/09 02:09:46;;;;;;;20.13;9.63;;;11.00;99.90;;;;;;4819581;29;20030;-74
2021/05/09 02:12:13;;;;;;;14.15;8.38;;;11.00;99.90;;;;;;4820301;29;20129;-73
2021/05/09 02:14:38;;;;;;;12.52;8.85;;;11.10;99.90;;;;;;4819324;29;20038;-73
2021/05/09 02:17:05;;;;;;;14.85;9.07;;;11.10;99.90;;;;;;4821408;29;20522;-73
2021/05/09 02:19:33;;;;;;;15.05;8.90;;;11.00;99.90;;;;;;4816908;29;20043;-72
2021/05/09 02:22:06;;;;;;;12.85;8.80;;;11.10;99.90;;;;;;4822605;29;20069;-72
2021/05/09 02:24:32;;;;;;;15.68;9.30;;;11.00;99.90;;;;;;4820530;29;20046;-73
2021/05/09 02:26:58;;;;;;;14.65;8.85;;;11.00;99.90;;;;;;4821474;29;20038;-73
2021/05/09 02:29:24;;;;;;;13.80;8.98;;;11.00;99.90;;;;;;4823582;29;20035;-72
2021/05/09 02:31:50;;;;;;;13.57;8.88;;;11.00;99.90;;;;;;4822280;29;20117;-73
2021/05/09 02:34:16;;;;;;;17.50;8.88;;;11.00;99.90;;;;;;4822486;29;20038;-73
2021/05/09 02:36:44;;;;;;;19.50;9.30;;;10.90;99.90;;;;;;4822476;29;20480;-72
2021/05/09 02:39:12;;;;;;;13.80;8.50;;;11.10;99.90;;;;;;4822645;29;20045;-73
2021/05/09 02:41:38;;;;;;;13.35;7.85;;;10.90;99.90;;;;;;4823592;29;20429;-72
2021/05/09 02:44:05;;;;;;;14.57;9.00;;;11.10;99.90;;;;;;4813766;29;20117;-73
2021/05/09 02:46:31;;;;;;;14.35;8.20;;;10.90;99.90;;;;;;4823373;29;20043;-73
2021/05/09 02:48:58;;;;;;;14.43;8.40;;;10.90;99.90;;;;;;4821563;29;20090;-73
2021/05/09 02:51:23;;;;;;;15.30;7.88;;;10.90;99.90;;;;;;4823922;29;20042;-73
2021/05/09 02:53:49;;;;;;;12.57;8.65;;;10.90;99.90;;;;;;4794720;29;20571;-73
2021/05/09 02:56:15;;;;;;;13.15;8.52;;;11.20;99.90;;;;;;4823102;29;20051;-73
2021/05/09 02:58:41;;;;;;;14.45;8.15;;;10.90;99.90;;;;;;4822206;29;20043;-73
2021/05/09 03:01:07;;;;;;;13.07;8.20;;;10.90;99.90;;;;;;4822174;29;20125;-73
2021/05/09 03:03:33;;;;;;;16.20;8.15;;;10.90;99.90;;;;;;4811325;29;20035;-73
2021/05/09 03:05:59;;;;;;;16.33;9.02;;;10.90;99.90;;;;;;4821909;29;20034;-72
2021/05/09 03:08:24;;;;;;;14.80;8.60;;;11.00;99.90;;;;;;4823302;29;20074;-72
2021/05/09 03:10:50;;;;;;;17.02;8.68;;;10.90;99.90;;;;;;4821369;29;20039;-73
2021/05/09 03:13:16;;;;;;;14.65;9.20;;;11.00;99.90;;;;;;4823157;29;20046;-73
2021/05/09 03:15:42;;;;;;;13.60;8.80;;;11.00;99.90;;;;;;4822896;29;20050;-73
2021/05/09 03:18:08;;;;;;;14.10;8.52;;;11.00;99.90;;;;;;4822959;29;20407;-73
2021/05/09 03:20:34;;;;;;;12.50;8.43;;;11.00;99.90;;;;;;4818376;29;20097;-73
2021/05/09 03:23:01;;;;;;;14.90;8.25;;;11.00;99.90;;;;;;4823139;29;20046;-73
2021/05/09 03:25:26;;;;;;;16.58;8.52;;;11.00;99.90;;;;;;4822135;29;20042;-73
2021/05/09 03:27:52;;;;;;;11.50;8.23;;;11.00;99.90;;;;;;4825840;29;20046;-73
2021/05/09 03:30:18;;;;;;;14.63;7.90;;;11.00;99.90;;;;;;4826280;29;20042;-73
2021/05/09 03:32:44;;;;;;;14.82;8.27;;;11.00;99.90;;;;;;4825301;29;20068;-73
2021/05/09 03:35:11;;;;;;;15.65;9.20;;;11.30;99.90;;;;;;4826806;29;20103;-73
2021/05/09 03:37:37;;;;;;;15.57;8.60;;;10.90;99.90;;;;;;4825052;29;20381;-73
2021/05/09 03:40:05;;;;;;;13.80;8.52;;;10.90;99.90;;;;;;4826025;29;20091;-73
2021/05/09 03:42:32;;;;;;;13.13;8.63;;;10.90;99.90;;;;;;4825628;29;20042;-74
2021/05/09 03:44:58;;;;;;;17.15;8.32;;;11.00;99.90;;;;;;4826064;29;20034;-73
2021/05/09 03:47:27;;;;;;;13.63;8.13;;;11.20;99.90;;;;;;4825795;29;20045;-73
2021/05/09 03:49:56;;;;;;;12.35;7.93;;;11.00;99.90;;;;;;4826178;29;20121;-73
2021/05/09 03:52:23;;;;;;;14.80;8.57;;;11.00;99.90;;;;;;4810070;29;20038;-73
2021/05/09 03:54:56;;;;;;;11.38;7.97;;;10.90;99.90;;;;;;4821759;29;20053;-73
2021/05/09 03:57:22;;;;;;;16.00;8.40;;;11.00;99.90;;;;;;4824450;29;20048;-73
2021/05/09 03:59:48;;;;;;;13.95;7.93;;;11.00;99.90;;;;;;4826434;29;20095;-73
2021/05/09 04:02:14;;;;;;;13.88;8.45;;;11.10;99.90;;;;;;4815346;29;20046;-73
2021/05/09 04:04:40;;;;;;;15.15;7.75;;;11.00;99.90;;;;;;4826396;29;20046;-73
2021/05/09 04:07:06;;;;;;;13.57;8.68;;;11.00;99.90;;;;;;4825595;29;20046;-73
2021/05/09 04:09:32;;;;;;;15.90;8.20;;;10.90;99.90;;;;;;4824880;29;20077;-73
2021/05/09 04:11:58;;;;;;;14.90;7.78;;;10.90;99.90;;;;;;4826074;29;20407;-73
2021/05/09 04:14:24;;;;;;;16.67;8.38;;;10.90;99.90;;;;;;4825772;29;20046;-73
2021/05/09 04:16:51;;;;;;;15.88;8.45;;;10.90;99.90;;;;;;4825515;29;20099;-72
2021/05/09 04:19:16;;;;;;;12.85;8.07;;;11.00;99.90;;;;;;4825316;29;20038;-73
2021/05/09 04:21:42;;;;;;;14.98;8.18;;;11.00;99.90;;;;;;4824142;29;20138;-73
2021/05/09 04:24:09;;;;;;;12.50;7.03;;;11.00;99.90;;;;;;4825583;29;20133;-72
2021/05/09 04:26:35;;;;;;;11.43;7.55;;;10.90;99.90;;;;;;4823850;29;20125;-73
2021/05/09 04:29:02;;;;;;;15.48;7.85;;;11.00;99.90;;;;;;4816884;29;20510;-73
2021/05/09 04:31:27;;;;;;;13.80;7.43;;;11.00;99.90;;;;;;4825396;29;20055;-73
2021/05/09 04:33:53;;;;;;;14.02;7.38;;;11.00;99.90;;;;;;4813364;29;20496;-73
2021/05/09 04:36:19;;;;;;;13.82;8.23;;;11.00;99.90;;;;;;4824100;29;20042;-73
2021/05/09 04:38:45;;;;;;;12.57;7.63;;;11.00;99.90;;;;;;4823086;29;20049;-73
2021/05/09 04:41:11;;;;;;;15.63;7.88;;;11.10;99.90;;;;;;4825287;29;20518;-73
2021/05/09 04:43:38;;;;;;;13.00;8.07;;;11.10;99.90;;;;;;4822769;29;20079;-72
2021/05/09 04:46:04;;;;;;;12.52;7.80;;;11.10;99.90;;;;;;4824686;29;20121;-72
2021/05/09 04:48:31;;;;;;;15.23;7.82;;;11.10;99.90;;;;;;4825022;29;20113;-73
2021/05/09 04:50:56;;;;;;;12.73;7.40;;;11.20;99.90;;;;;;4825358;29;20039;-73
2021/05/09 04:53:31;;;;;;;15.05;8.43;;;11.70;99.90;;;;;;4825543;29;20053;-73
2021/05/09 04:55:59;;;;;;;13.23;7.20;;;11.40;99.90;;;;;;4824922;29;20438;-73
2021/05/09 04:58:29;;;;;;;11.45;7.30;;;11.40;99.90;;;;;;4824883;29;20054;-72
2021/05/09 05:00:59;;;;;;;12.23;7.25;;;11.50;99.90;;;;;;4823229;29;20114;-72
2021/05/09 05:03:25;;;;;;;10.77;6.55;;;11.50;99.90;;;;;;4816153;29;20159;-73
2021/05/09 05:05:51;;;;;;;11.38;6.50;;;11.60;99.90;;;;;;4809848;29;20035;-73
2021/05/09 05:08:17;;;;;;;13.73;7.13;;;11.60;99.90;;;;;;4816092;29;20044;-73
2021/05/09 05:10:43;;;;;;;13.90;6.40;;;11.70;99.90;;;;;;4815657;29;20125;-72
2021/05/09 05:13:20;;;;;;;13.85;7.00;;;11.70;99.90;;;;;;4815816;29;20096;-73
2021/05/09 05:15:47;;;;;;;10.30;6.65;;;11.70;99.90;;;;;;4812314;29;20449;-73
2021/05/09 05:18:14;;;;;;;12.20;6.70;;;11.80;99.90;;;;;;4824265;29;20119;-74
2021/05/09 05:20:40;;;;;;;10.80;6.25;;;11.80;99.90;;;;;;4820143;29;20050;-74
2021/05/09 05:23:06;;;;;;;13.57;6.78;;;11.90;99.90;;;;;;4812220;29;20053;-74
2021/05/09 05:25:32;;;;;;;10.80;6.53;;;11.90;99.90;;;;;;4819225;29;20407;-74
2021/05/09 05:28:00;;;;;;;13.43;6.35;;;12.00;99.90;;;;;;4814990;29;20683;-74
2021/05/09 05:30:25;;;;;;;8.43;6.25;;;12.60;99.90;;;;;;4816870;29;20045;-72
2021/05/09 05:32:51;;;;;;;8.77;6.15;;;12.10;99.90;;;;;;4815061;29;20035;-72
2021/05/09 05:35:17;;;;;;;11.77;6.68;;;12.40;99.90;;;;;;4820271;29;20043;-72
2021/05/09 05:37:43;;;;;;;9.63;6.38;;;12.30;99.90;;;;;;4819411;29;20046;-72
2021/05/09 05:40:10;;;;;;;9.50;6.55;;;12.30;99.90;;;;;;4815656;29;20043;-72
2021/05/09 05:42:37;;;;;;;9.90;6.00;;;12.40;99.90;;;;;;4819863;29;20424;-72
2021/05/09 05:45:04;;;;;;;12.65;6.50;;;12.40;99.90;;;;;;4810326;29;20095;-72
2021/05/09 05:47:30;;;;;;;8.57;5.90;;;12.40;99.90;;;;;;4814023;29;20123;-72
2021/05/09 05:49:57;;;;;;;10.48;5.80;;;12.50;99.90;;;;;;4819455;29;20121;-72
2021/05/09 05:52:23;;;;;;;12.82;6.10;;;12.60;99.90;;;;;;4823340;29;20046;-72
2021/05/09 05:54:48;;;;;;;13.40;5.68;;;12.60;99.90;;;;;;4822826;29;20376;-73
2021/05/09 05:57:14;;;;;;;10.73;5.85;;;13.10;99.90;;;;;;4819209;29;20085;-72
2021/05/09 05:59:40;;;;;;;10.30;6.20;;;12.70;99.90;;;;;;4822338;29;20099;-73
2021/05/09 06:02:06;;;;;;;12.52;5.90;;;12.70;99.90;;;;;;4824656;29;20058;-73
2021/05/09 06:04:32;;;;;;;11.45;6.20;;;12.80;99.90;;;;;;4824299;29;20448;-73
2021/05/09 06:06:58;;;;;;;10.88;6.55;;;12.80;99.90;;;;;;4821130;29;20091;-73
2021/05/09 06:09:24;;;;;;;9.32;5.53;;;12.80;99.90;;;;;;4816232;29;20046;-73
2021/05/09 06:11:50;;;;;;;10.88;6.25;;;13.20;99.90;;;;;;4823704;29;20042;-73
2021/05/09 06:14:16;;;;;;;8.63;6.07;;;12.90;99.90;;;;;;4822266;29;20193;-73
2021/05/09 06:16:41;;;;;;;11.10;5.85;;;13.00;99.90;;;;;;4823441;29;20038;-73
2021/05/09 06:19:07;;;;;;;10.80;5.68;;;13.00;99.90;;;;;;4823661;29;20571;-73
2021/05/09 06:21:33;;;;;;;12.57;6.25;;;13.00;99.90;;;;;;4823224;29;20415;-73
2021/05/09 06:23:59;;;;;;;12.13;6.32;;;13.10;99.90;;;;;;4822580;29;20131;-73
2021/05/09 06:26:25;;;;;;;8.25;5.60;;;13.20;99.90;;;;;;4819707;29;20038;-73
2021/05/09 06:28:52;;;;;;;13.50;6.50;;;13.10;99.90;;;;;;4822749;29;20047;-73
2021/05/09 06:31:18;;;;;;;10.52;5.85;;;13.30;99.90;;;;;;4822615;29;20035;-73
2021/05/09 06:33:44;;;;;;;11.27;5.32;;;13.40;99.90;;;;;;4823404;29;20038;-73
2021/05/09 06:36:10;;;;;;;9.38;5.30;;;13.40;99.90;;;;;;4823359;29;20034;-73
2021/05/09 06:38:38;;;;;;;9.68;5.63;;;13.60;99.90;;;;;;4823154;29;20042;-73
2021/05/09 06:41:04;;;;;;;9.63;5.47;;;13.50;99.90;;;;;;4823865;29;20149;-74
2021/05/09 06:43:30;;;;;;;8.80;5.80;;;13.50;99.90;;;;;;4822318;29;20045;-74
2021/05/09 06:45:56;;;;;;;8.95;5.50;;;13.60;99.90;;;;;;4822944;29;20039;-74
2021/05/09 06:48:21;;;;;;;12.05;5.72;;;13.70;99.90;;;;;;4823443;29;20125;-74
2021/05/09 06:50:47;;;;;;;10.35;5.53;;;13.70;99.90;;;;;;4822760;29;20090;-74
2021/05/09 06:53:13;;;;;;;12.77;6.47;;;13.70;99.90;;;;;;4823801;29;20499;-74
2021/05/09 06:55:39;;;;;;;10.23;5.93;;;14.00;99.90;;;;;;4822814;29;20113;-74
2021/05/09 06:58:07;;;;;;;10.98;6.10;;;13.80;99.90;;;;;;4821217;29;20179;-74
2021/05/09 07:00:33;;;;;;;10.77;5.60;;;13.80;99.90;;;;;;4823258;29;20137;-74
2021/05/09 07:02:59;;;;;;;9.18;5.70;;;13.80;99.90;;;;;;4821792;29;20050;-73
2021/05/09 07:05:25;;;;;;;11.07;5.93;;;14.00;99.90;;;;;;4823071;29;20423;-73
2021/05/09 07:07:52;;;;;;;9.30;5.45;;;14.00;99.90;;;;;;4820964;29;20042;-73
2021/05/09 07:10:20;;;;;;;9.40;5.45;;;14.00;99.90;;;;;;4821401;29;20068;-73
2021/05/09 07:12:46;;;;;;;9.35;5.45;;;14.10;99.90;;;;;;4810824;29;20042;-73
2021/05/09 07:15:15;;;;;;;10.82;5.28;;;14.20;99.90;;;;;;4818971;29;20046;-73
2021/05/09 07:17:42;;;;;;;10.70;5.55;;;14.20;99.90;;;;;;4818053;29;20051;-73
2021/05/09 07:20:08;;;;;;;7.85;5.55;;;14.30;99.90;;;;;;4819013;29;20046;-73
2021/05/09 07:22:41;;;;;;;13.05;6.00;;;14.30;99.90;;;;;;4821607;29;20488;-73
2021/05/09 07:25:07;;;;;;;8.13;5.50;;;14.30;99.90;;;;;;4810630;29;20042;-76
2021/05/09 07:27:33;;;;;;;9.25;5.40;;;14.40;99.90;;;;;;4816661;29;20046;-76
2021/05/09 07:29:59;;;;;;;12.30;5.32;;;14.40;99.90;;;;;;4823572;29;20106;-74
2021/05/09 07:32:25;;;;;;;8.35;5.38;;;14.50;99.90;;;;;;4812214;29;20178;-74
2021/05/09 07:34:50;;;;;;;9.93;5.18;;;14.50;99.90;;;;;;4817286;29;20046;-76
2021/05/09 07:37:17;;;;;;;11.10;5.50;;;14.60;99.90;;;;;;4817387;29;20047;-81
2021/05/09 07:39:43;;;;;;;9.98;4.97;;;14.60;99.90;;;;;;4821324;29;20038;-80
2021/05/09 07:42:09;;;;;;;10.10;5.00;;;14.60;99.90;;;;;;4820498;29;20043;-80
2021/05/09 07:44:35;;;;;;;8.25;5.10;;;14.60;99.90;;;;;;4813535;29;20341;-80
2021/05/09 07:47:01;;;;;;;10.20;4.95;;;14.70;99.90;;;;;;4799249;29;20049;-81
2021/05/09 07:49:26;;;;;;;12.50;5.45;;;14.70;99.90;;;;;;4806003;29;20118;-80
2021/05/09 07:51:52;;;;;;;11.18;5.25;;;14.80;99.90;;;;;;4812310;29;20066;-80
2021/05/09 07:54:18;;;;;;;12.98;5.70;;;14.90;99.90;;;;;;4821088;29;20046;-79
2021/05/09 07:56:44;;;;;;;10.50;5.18;;;15.00;99.90;;;;;;4816056;29;20040;-80
2021/05/09 07:59:10;;;;;;;11.95;5.03;;;15.10;99.90;;;;;;4814239;29;20063;-76
2021/05/09 08:01:35;;;;;;;8.57;5.38;;;15.10;99.90;;;;;;4821075;29;20133;-79
2021/05/09 08:04:04;;;;;;;10.35;5.55;;;15.20;99.90;;;;;;4814035;29;20484;-81
2021/05/09 08:06:30;;;;;;;8.07;5.68;;;15.20;99.90;;;;;;4813957;29;20053;-80
2021/05/09 08:08:57;;;;;;;11.55;5.95;;;15.30;99.90;;;;;;4812324;29;20039;-80
2021/05/09 08:11:23;;;;;;;7.97;5.85;;;15.40;99.90;;;;;;4812024;29;20051;-80
2021/05/09 08:13:49;;;;;;;9.35;5.75;;;15.40;99.90;;;;;;4818349;29;20468;-76
2021/05/09 08:16:15;;;;;;;10.23;5.57;;;15.40;99.90;;;;;;4815894;29;20050;-74
2021/05/09 08:18:40;;;;;;;12.35;5.97;;;15.50;99.90;;;;;;4816739;29;20122;-75
2021/05/09 08:21:06;;;;;;;10.40;5.60;;;15.50;99.90;;;;;;4812748;29;20095;-74
2021/05/09 08:23:35;;;;;;;11.10;5.53;;;15.50;99.90;;;;;;4815942;29;20070;-73
2021/05/09 08:26:01;;;;;;;10.10;5.32;;;15.60;99.90;;;;;;4814182;29;20131;-75
2021/05/09 08:28:27;;;;;;;11.32;5.43;;;15.70;99.90;;;;;;4807017;29;20170;-76
2021/05/09 08:30:53;;;;;;;12.15;5.53;;;15.70;99.90;;;;;;4816701;29;20054;-77
2021/05/09 08:33:18;;;;;;;9.00;5.40;;;15.70;99.90;;;;;;4817244;29;20080;-74
2021/05/09 08:35:44;;;;;;;8.65;5.40;;;15.80;99.90;;;;;;4817766;29;20066;-70
2021/05/09 08:38:10;;;;;;;8.93;4.68;;;15.90;99.90;;;;;;4797870;29;20396;-70
2021/05/09 08:40:36;;;;;;;12.35;4.85;;;16.00;99.90;;;;;;4825183;29;20058;-70
2021/05/09 08:43:02;;;;;;;9.50;5.03;;;16.00;99.90;;;;;;4814257;29;20043;-70
2021/05/09 08:45:28;;;;;;;9.65;4.80;;;16.10;99.90;;;;;;4815496;29;20411;-75
2021/05/09 08:47:55;;;;;;;8.32;4.20;;;16.20;99.90;;;;;;4820218;29;20053;-70
2021/05/09 08:50:25;;;;;;;6.53;3.85;;;16.30;99.90;;;;;;4822759;29;20038;-71
2021/05/09 08:52:51;;;;;;;7.03;3.90;;;16.30;99.90;;;;;;4823249;29;20047;-70
2021/05/09 08:55:26;;;;;;;6.05;4.28;;;16.40;99.90;;;;;;4825096;29;20068;-70
2021/05/09 08:57:56;;;;;;;8.80;4.63;;;16.50;99.90;;;;;;4825389;29;20050;-70
2021/05/09 09:00:23;;;;;;;8.82;4.13;;;16.50;99.90;;;;;;4824854;29;20050;-70
2021/05/09 09:02:49;;;;;;;12.23;3.92;;;16.60;99.90;;;;;;4825334;29;20501;-70
2021/05/09 09:05:15;;;;;;;6.97;3.70;;;16.70;99.90;;;;;;4825180;29;20038;-71
2021/05/09 09:07:46;;;;;;;6.78;3.65;;;16.80;99.90;;;;;;4825291;29;20054;-71
2021/05/09 09:10:47;;;;;;;8.13;4.05;;;16.90;99.90;;;;;;4824687;29;20054;-70
2021/05/09 09:13:28;;;;;;;8.30;3.25;;;16.90;99.90;;;;;;4816321;29;20086;-70
2021/05/09 09:15:58;;;;;;;6.20;3.08;;;17.10;99.90;;;;;;4824671;29;20042;-70
2021/05/09 09:18:39;;;;;;;7.32;3.03;;;17.20;99.90;;;;;;4823815;29;20053;-70
2021/05/09 09:21:30;;;;;;;5.63;2.90;;;17.30;99.90;;;;;;4824689;29;20129;-70
2021/05/09 09:24:11;;;;;;;7.53;3.00;;;17.30;99.90;;;;;;4823419;29;20061;-73
2021/05/09 09:26:38;;;;;;;5.65;2.80;;;17.20;99.90;;;;;;4824025;29;20431;-73
2021/05/09 09:29:35;;;;;;;6.10;2.80;;;17.20;99.90;;;;;;4824874;29;20042;-71
2021/05/09 09:32:03;;;;;;;4.90;2.72;;;17.00;99.90;;;;;;4823711;29;20042;-75
2021/05/09 09:34:42;;;;;;;5.40;2.63;;;16.90;99.90;;;;;;4824649;29;20054;-75
2021/05/09 09:37:09;;;;;;;10.80;3.00;;;16.80;99.90;;;;;;4821546;29;20064;-79
2021/05/09 09:39:55;;;;;;;7.88;3.03;;;16.70;99.90;;;;;;4812506;29;20129;-78
2021/05/09 09:42:46;;;;;;;4.40;2.88;;;16.60;99.90;;;;;;4815966;29;20077;-78
2021/05/09 09:45:15;;;;;;;7.03;3.53;;;16.50;99.90;;;;;;4818659;29;20046;-78
2021/05/09 09:47:59;;;;;;;6.03;3.40;;;16.40;99.90;;;;;;4821469;29;20171;-79
2021/05/09 09:50:46;;;;;;;6.20;3.28;;;16.20;99.90;;;;;;4808514;29;20046;-78
2021/05/09 09:53:33;;;;;;;7.28;3.20;;;16.20;99.90;;;;;;4818890;29;20628;-77
2021/05/09 09:56:15;;;;;;;8.63;3.95;;;16.10;99.90;;;;;;4817911;29;20137;-78
2021/05/09 09:59:08;;;;;;;5.50;3.08;;;16.00;99.90;;;;;;4815042;29;22038;-78
2021/05/09 10:01:36;;;;;;;7.78;3.33;;;16.00;99.90;;;;;;4818133;29;20445;-77
2021/05/09 10:04:07;;;;;;;7.07;2.97;;;15.90;99.90;;;;;;4820143;29;20046;-78
2021/05/09 10:06:36;;;;;;;5.60;3.00;;;15.90;99.90;;;;;;4820088;29;20077;-78
2021/05/09 10:09:03;;;;;;;7.53;3.10;;;15.90;99.90;;;;;;4813743;29;20485;-78
2021/05/09 10:11:30;;;;;;;7.68;3.35;;;15.90;99.90;;;;;;4819510;29;20110;-78
2021/05/09 10:14:00;;;;;;;7.30;3.00;;;15.90;99.90;;;;;;4819692;29;20121;-80
2021/05/09 10:16:28;;;;;;;9.55;3.65;;;15.80;99.90;;;;;;4823492;29;20483;-78
2021/05/09 10:19:03;;;;;;;5.40;3.38;;;15.80;99.90;;;;;;4822006;29;20057;-77
2021/05/09 10:21:33;;;;;;;8.18;3.50;;;15.80;99.90;;;;;;4821468;29;20523;-76
2021/05/09 10:24:14;;;;;;;5.05;3.28;;;15.80;99.90;;;;;;4821792;29;20050;-75
2021/05/09 10:27:19;;;;;;;6.75;3.60;;;15.90;99.90;;;;;;4822500;29;20500;-79
2021/05/09 10:29:47;;;;;;;8.40;3.47;;;15.90;99.90;;;;;;4821524;29;20127;-76
2021/05/09 10:32:19;;;;;;;6.82;3.20;;;15.90;99.90;;;;;;4807623;29;20042;-76
2021/05/09 10:34:51;;;;;;;6.60;3.58;;;15.90;99.90;;;;;;4820107;29;20046;-73
2021/05/09 10:37:36;;;;;;;8.13;3.53;;;16.00;99.90;;;;;;4821093;29;20461;-74
2021/05/09 10:40:28;;;;;;;6.38;3.47;;;16.10;99.90;;;;;;4812858;29;20043;-79
2021/05/09 10:43:04;;;;;;;5.45;3.20;;;16.20;99.90;;;;;;4819529;29;20072;-78
2021/05/09 10:45:36;;;;;;;9.63;3.60;;;16.30;99.90;;;;;;4820359;29;20038;-79
2021/05/09 10:48:47;;;;;;;7.45;3.40;;;16.50;99.90;;;;;;4821696;29;20049;-78
2021/05/09 10:51:14;;;;;;;7.15;3.90;;;16.70;99.90;;;;;;4820243;29;20050;-79
2021/05/09 10:53:41;;;;;;;5.53;3.60;;;16.90;99.90;;;;;;4814060;29;20460;-79
2021/05/09 10:56:16;;;;;;;8.52;3.85;;;17.00;99.90;;;;;;4822520;29;20179;-80
2021/05/09 10:58:46;;;;;;;6.15;3.30;;;17.20;99.90;;;;;;4820237;29;20507;-79
2021/05/09 11:01:20;;;;;;;6.70;2.72;;;17.30;99.90;;;;;;4820774;29;20081;-80
2021/05/09 11:03:51;;;;;;;6.53;3.00;;;17.60;99.90;;;;;;4804081;29;20165;-80
2021/05/09 11:06:38;;;;;;;3.53;2.30;;;17.70;99.90;;;;;;4820577;29;20034;-78
2021/05/09 11:09:05;;;;;;;2.88;2.00;;;17.90;99.90;;;;;;4819884;29;20046;-79
2021/05/09 11:11:31;;;;;;;2.78;2.00;;;18.00;99.90;;;;;;4821224;29;20117;-79
2021/05/09 11:14:05;;;;;;;7.72;2.38;;;18.20;99.90;;;;;;4817938;29;20038;-81
2021/05/09 11:16:33;;;;;;;7.00;2.53;;;18.40;99.90;;;;;;4820133;29;20053;-83
2021/05/09 11:19:06;;;;;;;5.25;2.65;;;18.40;99.90;;;;;;4817915;29;20076;-77
2021/05/09 11:21:36;;;;;;;6.10;2.95;;;18.40;99.90;;;;;;4820967;29;20053;-76
2021/05/09 11:24:04;;;;;;;7.07;2.70;;;18.40;99.90;;;;;;4818110;29;20065;-76
2021/05/09 11:26:38;;;;;;;4.60;2.15;;;18.40;99.90;;;;;;4820220;29;20070;-76
2021/05/09 11:29:09;;;;;;;4.28;2.22;;;18.40;99.90;;;;;;4804574;29;20070;-76
2021/05/09 11:31:38;;;;;;;7.38;2.03;;;18.40;99.90;;;;;;4818282;29;20038;-76
2021/05/09 11:34:04;;;;;;;3.95;1.75;;;18.40;99.90;;;;;;4819925;29;20043;-76
2021/05/09 11:36:32;;;;;;;5.35;2.10;;;18.50;99.90;;;;;;4816814;29;20061;-76
2021/05/09 11:39:11;;;;;;;5.05;2.40;;;18.50;99.90;;;;;;4819113;29;20045;-76
2021/05/09 11:41:56;;;;;;;4.72;2.33;;;18.50;99.90;;;;;;4817309;29;20043;-78
2021/05/09 11:44:36;;;;;;;8.02;2.67;;;18.50;99.90;;;;;;4819016;29;20050;-78
2021/05/09 11:47:10;;;;;;;6.97;2.60;;;18.50;99.90;;;;;;4819186;29;20042;-76
2021/05/09 11:49:36;;;;;;;4.07;1.98;;;18.50;99.90;;;;;;4826532;29;20113;-76
2021/05/09 11:52:06;;;;;;;17.90;2.53;;;18.60;99.90;;;;;;4824784;29;20046;-76
2021/05/09 11:54:43;;;;;;;3.55;1.70;;;18.70;99.90;;;;;;4826397;29;20043;-78
2021/05/09 11:57:09;;;;;;;4.07;1.73;;;18.70;99.90;;;;;;4822824;29;20050;-76
2021/05/09 11:59:41;;;;;;;4.18;1.70;;;18.80;99.90;;;;;;4823906;29;20046;-76
2021/05/09 12:02:06;;;;;;;2.92;1.58;;;19.00;99.90;;;;;;4822171;29;20047;-76
2021/05/09 12:04:32;;;;;;;4.28;1.85;;;19.10;99.90;;;;;;4824153;29;20035;-78
2021/05/09 12:07:02;;;;;;;4.32;1.48;;;19.20;99.90;;;;;;4822849;29;20042;-77
2021/05/09 12:09:30;;;;;;;4.07;1.88;;;19.40;99.90;;;;;;4823544;29;20095;-78
2021/05/09 12:11:57;;;;;;;4.97;1.70;;;19.40;99.90;;;;;;4823917;29;20103;-78
2021/05/09 12:14:29;;;;;;;7.35;1.85;;;19.50;99.90;;;;;;4818393;29;20095;-78
2021/05/09 12:16:56;;;;;;;5.07;1.77;;;19.60;99.90;;;;;;4822456;29;20050;-78
2021/05/09 12:19:39;;;;;;;3.97;1.90;;;19.60;99.90;;;;;;4818677;29;20039;-78
2021/05/09 12:22:05;;;;;;;9.30;2.72;;;19.70;99.90;;;;;;4816572;29;20107;-76
2021/05/09 12:24:56;;;;;;;10.10;2.40;;;19.80;99.90;;;;;;4818775;29;20504;-76
2021/05/09 12:27:26;;;;;;;4.30;1.60;;;19.80;99.90;;;;;;4821560;29;20563;-76
2021/05/09 12:29:55;;;;;;;3.45;1.60;;;20.00;99.90;;;;;;4820127;29;20062;-77
2021/05/09 12:32:22;;;;;;;3.47;1.85;;;20.10;99.90;;;;;;4821589;29;20113;-76
2021/05/09 12:35:13;;;;;;;7.43;1.65;;;20.20;99.90;;;;;;4821947;29;20039;-78
2021/05/09 12:37:42;;;;;;;3.65;2.10;;;20.40;99.90;;;;;;4822168;29;20115;-78
2021/05/09 12:40:12;;;;;;;3.63;1.80;;;20.40;99.90;;;;;;4822347;29;20041;-78
2021/05/09 12:42:51;;;;;;;4.53;1.70;;;20.50;99.90;;;;;;4821853;29;20113;-78
2021/05/09 12:45:25;;;;;;;6.35;1.50;;;20.40;99.70;;;;;;4821319;29;20060;-76
2021/05/09 12:48:03;;;;;;;4.05;1.55;;;20.40;99.90;;;;;;4823735;29;20510;-76
2021/05/09 12:50:53;;;;;;;12.10;1.67;;;20.30;99.60;;;;;;4824271;29;20075;-76